Time;durP1;ratioP1;P1;durP2;ratioP2;P2;SDS_P1;SDS_P2;PMS_P1;PMS_P2;Temp;Humidity;BMP_temperature;BMP_pressure;BME280_temperature;BME280_humidity;BME280_pressure;Samples;Min_cycle;Max_cycle;Signal;HPM_P1;HPM_P2
2022/09/13 00:03:27;;;;;;;3.70;1.90;;;;;;;20.05;44.39;100892.88;5039647;28;20469;-59
2022/09/13 00:05:53;;;;;;;5.43;2.08;;;;;;;20.07;44.40;100898.84;5026452;28;20474;-60
2022/09/13 00:08:19;;;;;;;2.03;1.77;;;;;;;20.07;44.38;100892.66;5021674;28;20406;-60
2022/09/13 00:16:14;;;;;;;2.10;1.60;;;;;;;20.01;44.64;100892.53;5030821;28;20428;-60
2022/09/13 00:18:40;;;;;;;2.00;1.80;;;;;;;20.02;44.73;100888.78;5026460;28;20435;-60
2022/09/13 00:21:12;;;;;;;3.00;1.60;;;;;;;20.01;44.60;100883.63;5026718;28;20379;-60
2022/09/13 00:24:10;;;;;;;2.70;1.80;;;;;;;20.02;44.61;100888.78;5059533;28;20402;-60
2022/09/13 00:29:08;;;;;;;4.10;2.67;;;;;;;19.95;44.79;100880.00;5059900;28;20838;-59
2022/09/13 00:31:33;;;;;;;5.07;2.10;;;;;;;19.92;44.91;100879.63;5035544;28;20901;-59
2022/09/13 00:33:59;;;;;;;3.85;1.90;;;;;;;19.89;44.89;100874.69;5026645;28;20475;-59
2022/09/13 00:36:36;;;;;;;3.10;1.90;;;;;;;19.88;45.26;100878.41;5096028;27;20402;-60
2022/09/13 00:40:15;;;;;;;4.90;2.03;;;;;;;19.83;45.48;100874.56;5041856;28;20408;-60
2022/09/13 00:42:40;;;;;;;3.50;2.10;;;;;;;19.78;45.48;100870.91;5021571;28;20478;-60
2022/09/13 00:47:12;;;;;;;7.38;2.10;;;;;;;19.79;45.63;100868.00;5049491;28;20405;-60
2022/09/13 00:51:27;;;;;;;3.10;2.00;;;;;;;19.73;46.01;100865.34;5044147;28;20415;-60
2022/09/13 00:54:54;;;;;;;2.63;1.92;;;;;;;19.71;46.01;100870.94;5085777;27;20400;-59
2022/09/13 00:57:21;;;;;;;4.05;1.85;;;;;;;19.66;46.17;100871.66;5076447;28;20403;-59
2022/09/13 01:00:06;;;;;;;4.65;1.90;;;;;;;19.62;46.11;100873.13;5080005;28;20382;-59
2022/09/13 01:02:31;;;;;;;3.78;2.03;;;;;;;19.59;46.31;100865.53;5077103;28;20958;-60
2022/09/13 01:04:57;;;;;;;4.33;1.87;;;;;;;19.54;46.49;100865.38;5074140;28;20378;-59
2022/09/13 01:07:23;;;;;;;4.77;1.97;;;;;;;19.48;46.57;100864.41;5075164;28;20808;-59
2022/09/13 01:12:03;;;;;;;2.47;1.92;;;;;;;19.43;46.80;100860.78;5074379;27;20405;-59
2022/09/13 01:14:31;;;;;;;3.20;2.00;;;;;;;19.41;46.65;100858.31;5046531;28;20481;-59
2022/09/13 01:16:56;;;;;;;2.83;2.00;;;;;;;19.37;46.76;100859.78;5046118;28;20381;-59
2022/09/13 01:20:08;;;;;;;5.63;2.10;;;;;;;19.34;47.01;100859.41;5031163;28;20496;-59
2022/09/13 01:26:41;;;;;;;3.13;2.40;;;;;;;19.26;47.16;100857.84;5060189;27;20992;-59
2022/09/13 01:29:34;;;;;;;3.33;2.33;;;;;;;19.23;47.29;100855.59;5033340;28;20404;-59
2022/09/13 01:32:28;;;;;;;3.87;2.07;;;;;;;19.21;47.33;100847.78;5045951;28;20393;-59
2022/09/13 01:43:55;;;;;;;3.10;2.40;;;;;;;19.09;47.65;100855.75;5043328;28;20415;-60
2022/09/13 01:46:33;;;;;;;2.95;2.33;;;;;;;19.07;47.63;100851.66;5015795;28;20932;-60
2022/09/13 01:51:28;;;;;;;5.13;2.08;;;;;;;19.03;47.97;100847.75;5071085;28;20401;-59
2022/09/13 01:56:13;;;;;;;3.25;2.08;;;;;;;18.99;47.88;100846.56;5093513;27;20408;-60
2022/09/13 01:58:48;;;;;;;2.55;2.03;;;;;;;18.98;47.73;100850.28;5066184;28;20801;-60
2022/09/13 02:03:17;;;;;;;5.72;2.20;;;;;;;18.93;47.94;100850.16;5098762;27;20771;-60
2022/09/13 02:09:23;;;;;;;2.85;2.20;;;;;;;18.89;48.05;100858.66;5053503;28;20464;-60
2022/09/13 02:11:58;;;;;;;3.70;2.60;;;;;;;18.80;48.22;100853.72;5041519;28;20437;-60
2022/09/13 02:14:31;;;;;;;4.38;2.47;;;;;;;18.81;48.31;100853.53;5026372;28;20398;-59
2022/09/13 02:17:09;;;;;;;4.55;2.30;;;;;;;18.74;48.20;100847.38;5026037;28;20875;-60
2022/09/13 02:19:40;;;;;;;4.50;2.30;;;;;;;18.76;48.24;100849.84;5039443;28;20452;-59
2022/09/13 02:22:10;;;;;;;3.60;2.30;;;;;;;18.73;48.14;100845.75;5027016;28;20395;-60
2022/09/13 02:24:40;;;;;;;4.20;2.40;;;;;;;18.68;48.32;100842.91;5026345;28;20419;-60
2022/09/13 02:28:31;;;;;;;2.60;2.08;;;;;;;18.64;48.22;100844.41;5044961;28;20842;-60
2022/09/13 02:30:58;;;;;;;2.28;2.08;;;;;;;18.62;48.21;100841.09;5045798;28;20448;-60
2022/09/13 02:33:30;;;;;;;3.10;2.10;;;;;;;18.61;48.39;100834.91;5046551;28;20531;-60
2022/09/13 02:37:30;;;;;;;2.92;1.95;;;;;;;18.60;47.97;100835.97;5093036;27;20471;-60
2022/09/13 02:42:03;;;;;;;3.80;2.10;;;;;;;18.60;48.15;100838.66;5078758;27;20462;-59
2022/09/13 02:45:58;;;;;;;4.45;2.10;;;;;;;18.57;48.16;100839.06;5044293;28;20407;-59
2022/09/13 02:49:30;;;;;;;3.80;2.20;;;;;;;18.56;48.26;100842.78;5072730;27;20412;-60
2022/09/13 02:52:20;;;;;;;5.20;2.15;;;;;;;18.54;48.30;100839.50;5060458;28;20390;-60
2022/09/13 02:56:12;;;;;;;4.63;2.00;;;;;;;18.49;48.46;100842.03;5043227;28;20484;-60
2022/09/13 02:58:37;;;;;;;2.92;2.08;;;;;;;18.42;48.52;100841.25;5045140;28;20401;-60
2022/09/13 03:04:34;;;;;;;3.22;2.10;;;;;;;18.43;48.56;100840.22;5061790;28;20417;-60
2022/09/13 03:07:03;;;;;;;2.40;2.20;;;;;;;18.41;48.63;100843.13;5046203;28;20451;-60
2022/09/13 03:09:30;;;;;;;3.33;2.20;;;;;;;18.40;48.71;100846.03;5046260;28;20855;-60
2022/09/13 03:12:04;;;;;;;2.55;2.35;;;;;;;18.34;48.81;100839.66;5051789;28;20380;-60
2022/09/13 03:24:00;;;;;;;3.65;2.42;;;;;;;18.26;49.25;100842.66;5093842;27;20408;-59
2022/09/13 03:30:03;;;;;;;3.58;2.30;;;;;;;18.28;49.34;100838.69;5091920;27;20432;-59
2022/09/13 03:33:05;;;;;;;3.08;2.40;;;;;;;18.26;49.47;100840.78;5079817;28;20423;-59
2022/09/13 03:37:54;;;;;;;5.03;2.70;;;;;;;18.23;49.62;100840.38;5052994;28;20829;-59
2022/09/13 03:40:32;;;;;;;3.60;2.33;;;;;;;18.21;49.77;100845.97;5026606;28;20493;-59
2022/09/13 03:42:58;;;;;;;3.80;2.30;;;;;;;18.22;49.62;100841.41;5026494;28;20386;-60
2022/09/13 03:45:29;;;;;;;4.23;2.30;;;;;;;18.20;49.57;100844.31;5026709;28;20754;-59
2022/09/13 03:48:13;;;;;;;4.55;2.47;;;;;;;18.17;49.50;100838.56;5057870;28;20406;-59
2022/09/13 03:51:17;;;;;;;2.80;2.30;;;;;;;18.18;49.61;100845.56;5075494;28;20410;-59
2022/09/13 03:53:55;;;;;;;5.32;2.50;;;;;;;18.20;49.51;100849.69;5046266;28;20471;-59
2022/09/13 03:56:21;;;;;;;5.93;2.40;;;;;;;18.20;49.25;100847.00;5046216;28;20385;-59
2022/09/13 03:58:47;;;;;;;4.03;2.43;;;;;;;18.20;49.45;100846.19;5046603;28;20405;-59
2022/09/13 04:01:17;;;;;;;4.23;2.40;;;;;;;18.17;49.58;100839.41;5034768;28;20434;-59
2022/09/13 04:03:42;;;;;;;3.42;2.50;;;;;;;18.17;49.59;100841.25;5046295;28;20385;-59
2022/09/13 04:06:08;;;;;;;3.30;2.40;;;;;;;18.20;49.33;100847.00;5037726;28;20390;-59
2022/09/13 04:08:33;;;;;;;3.08;2.55;;;;;;;18.21;49.46;100843.28;5045368;28;20412;-59
2022/09/13 04:11:00;;;;;;;4.27;2.77;;;;;;;18.25;49.08;100852.53;5045898;28;20463;-59
2022/09/13 04:13:25;;;;;;;2.95;2.30;;;;;;;18.27;49.23;100847.75;5037985;28;20763;-59
2022/09/13 04:15:51;;;;;;;3.70;2.57;;;;;;;18.32;49.08;100849.81;5045967;28;20377;-59
2022/09/13 04:18:17;;;;;;;5.05;2.60;;;;;;;18.33;49.03;100857.66;5038357;28;20891;-60
2022/09/13 04:20:43;;;;;;;3.30;2.60;;;;;;;18.33;49.00;100856.84;5045856;28;20481;-58
2022/09/13 04:23:08;;;;;;;5.50;2.57;;;;;;;18.38;48.92;100856.97;5038378;28;20485;-60
2022/09/13 04:25:39;;;;;;;3.08;2.50;;;;;;;18.44;48.69;100852.59;5045754;28;20425;-60
2022/09/13 04:28:05;;;;;;;5.32;2.40;;;;;;;18.63;48.29;100854.28;5038087;28;20409;-59
2022/09/13 04:30:31;;;;;;;3.85;2.47;;;;;;;18.84;47.94;100865.72;5045606;28;20401;-60
2022/09/13 04:32:58;;;;;;;4.27;2.70;;;;;;;19.00;47.46;100862.47;5037992;28;20397;-59
2022/09/13 04:35:24;;;;;;;4.35;2.70;;;;;;;19.23;46.92;100869.88;5045537;28;20388;-59
2022/09/13 04:37:49;;;;;;;4.50;2.70;;;;;;;19.46;46.46;100873.75;5045430;28;20412;-59
2022/09/13 04:40:15;;;;;;;3.30;2.50;;;;;;;19.61;46.15;100873.38;5045181;28;20385;-60
2022/09/13 04:43:37;;;;;;;3.05;2.20;;;;;;;19.80;45.65;100871.50;5063038;27;20479;-59
2022/09/13 04:46:03;;;;;;;3.57;2.17;;;;;;;20.03;45.23;100882.34;5046871;28;20402;-60
2022/09/13 04:49:28;;;;;;;2.85;2.22;;;;;;;20.30;44.62;100879.25;5072386;27;20426;-60
2022/09/13 04:51:53;;;;;;;3.27;2.07;;;;;;;20.50;44.19;100873.56;5046550;28;20400;-60
2022/09/13 04:54:20;;;;;;;4.85;2.53;;;;;;;20.65;43.94;100883.91;5066275;28;20823;-60
2022/09/13 04:56:45;;;;;;;9.75;2.17;;;;;;;20.86;43.37;100887.09;5059592;28;20378;-61
2022/09/13 04:59:12;;;;;;;3.42;2.10;;;;;;;21.04;43.01;100889.66;5058966;28;20438;-60
2022/09/13 05:01:50;;;;;;;3.38;2.90;;;;;;;21.26;42.54;100883.66;5098699;27;20830;-60
2022/09/13 05:04:16;;;;;;;3.73;3.37;;;;;;;21.45;42.19;100881.66;5086752;28;20903;-60
2022/09/13 05:06:41;;;;;;;4.43;2.17;;;;;;;21.61;41.91;100878.25;5076725;28;20949;-60
2022/09/13 05:09:12;;;;;;;3.83;2.33;;;;;;;21.84;41.47;100881.91;5061432;28;20389;-60
2022/09/13 05:11:37;;;;;;;4.88;2.20;;;;;;;22.04;40.92;100887.69;5063329;28;20403;-60
2022/09/13 05:14:04;;;;;;;4.90;2.60;;;;;;;22.25;40.37;100882.63;5060017;28;21348;-60
2022/09/13 05:16:32;;;;;;;5.50;2.60;;;;;;;22.46;39.90;100884.66;5070520;28;20438;-60
2022/09/13 05:18:58;;;;;;;3.03;2.67;;;;;;;22.68;39.71;100878.50;5061406;28;20468;-60
2022/09/13 05:21:26;;;;;;;5.45;3.10;;;;;;;22.89;39.43;100879.66;5065517;28;20407;-61
2022/09/13 05:23:53;;;;;;;3.90;2.47;;;;;;;23.11;38.82;100876.19;5070742;28;20943;-60
2022/09/13 05:26:21;;;;;;;6.28;3.40;;;;;;;23.39;38.51;100886.00;5065636;28;20968;-60
2022/09/13 05:28:47;;;;;;;5.55;3.63;;;;;;;23.60;37.99;100871.66;5070251;28;20390;-60
2022/09/13 05:31:23;;;;;;;2.40;2.20;;;;;;;23.91;37.22;100876.63;5073790;28;20465;-60
2022/09/13 05:33:54;;;;;;;4.13;3.17;;;;;;;24.14;36.95;100879.00;5071308;28;20380;-60
2022/09/13 05:36:19;;;;;;;3.55;2.85;;;;;;;24.40;36.59;100882.78;5086072;28;20382;-60
2022/09/13 05:38:45;;;;;;;5.07;3.03;;;;;;;24.74;35.81;100865.44;5085635;28;20394;-60
2022/09/13 05:41:10;;;;;;;3.90;2.50;;;;;;;25.02;35.46;100866.16;5055818;28;20415;-60
2022/09/13 05:43:36;;;;;;;5.17;2.60;;;;;;;25.38;34.91;100875.31;5055728;28;20954;-60
2022/09/13 05:46:09;;;;;;;3.93;2.33;;;;;;;25.72;34.20;100872.97;5065024;28;20387;-60
2022/09/13 05:48:35;;;;;;;4.15;1.98;;;;;;;26.04;33.58;100868.47;5067132;28;20384;-60
2022/09/13 05:51:11;;;;;;;2.17;1.88;;;;;;;26.27;33.52;100859.78;5053070;28;21500;-60
2022/09/13 05:53:40;;;;;;;4.73;2.30;;;;;;;26.48;33.28;100863.28;5058853;28;20459;-60
2022/09/13 05:56:11;;;;;;;3.60;2.08;;;;;;;26.86;32.44;100866.53;5068215;28;20431;-59
2022/09/13 05:58:41;;;;;;;3.80;2.20;;;;;;;27.19;32.11;100867.00;5075629;28;20522;-60
2022/09/13 06:01:08;;;;;;;4.95;1.90;;;;;;;27.46;31.50;100869.34;5063405;28;20469;-59
2022/09/13 06:03:35;;;;;;;6.72;2.72;;;;;;;27.70;31.25;100870.59;5065796;28;20471;-60
2022/09/13 06:06:00;;;;;;;5.55;2.80;;;;;;;27.98;30.98;100867.19;5063247;28;20475;-60
2022/09/13 06:08:28;;;;;;;3.77;3.00;;;;;;;28.45;30.40;100873.09;5064569;28;20464;-60
2022/09/13 06:11:07;;;;;;;7.57;3.08;;;;;;;28.43;30.33;100867.06;5064758;28;20391;-60
2022/09/13 06:13:34;;;;;;;5.15;2.60;;;;;;;28.50;29.95;100858.56;5046440;28;20814;-59
2022/09/13 06:16:02;;;;;;;3.57;2.00;;;;;;;28.63;29.86;100854.38;5047589;28;20392;-59
2022/09/13 06:18:28;;;;;;;5.97;2.40;;;;;;;28.71;29.87;100860.03;5050635;28;20436;-59
2022/09/13 06:21:05;;;;;;;3.55;2.38;;;;;;;28.94;29.50;100852.97;5047860;28;20408;-59
2022/09/13 06:23:30;;;;;;;3.83;2.55;;;;;;;29.31;29.09;100865.09;5050228;28;20906;-59
2022/09/13 06:26:23;;;;;;;6.35;2.60;;;;;;;30.56;27.36;100857.53;5052945;28;20385;-60
2022/09/13 06:28:51;;;;;;;6.80;1.98;;;;;;;32.00;25.55;100851.81;5052202;28;20450;-61
2022/09/13 06:31:17;;;;;;;5.60;2.25;;;;;;;33.36;23.41;100851.53;5050731;28;20381;-60
2022/09/13 06:33:43;;;;;;;6.50;2.15;;;;;;;34.63;21.84;100846.56;5051822;28;20376;-60
2022/09/13 06:36:18;;;;;;;4.57;2.03;;;;;;;36.05;20.40;100851.69;5050042;28;20466;-60
2022/09/13 06:38:46;;;;;;;5.88;2.20;;;;;;;37.24;19.31;100842.63;5053167;28;20389;-59
2022/09/13 06:41:19;;;;;;;4.40;2.20;;;;;;;38.46;17.85;100847.22;5049944;28;20427;-61
2022/09/13 06:44:14;;;;;;;2.80;1.70;;;;;;;39.49;16.47;100840.56;5077628;27;2068709;-60
2022/09/13 06:46:39;;;;;;;3.53;1.85;;;;;;;40.39;15.71;100835.91;5120426;27;20780;-58
2022/09/13 06:49:07;;;;;;;3.00;1.70;;;;;;;40.91;15.06;100842.72;5120776;27;20391;-58
2022/09/13 06:51:34;;;;;;;3.45;1.90;;;;;;;41.43;14.91;100841.06;5123948;27;20432;-58
2022/09/13 06:54:00;;;;;;;5.18;2.00;;;;;;;41.84;14.37;100845.94;5125552;27;20371;-58
2022/09/13 06:58:35;;;;;;;4.57;1.80;;;;;;;42.87;13.37;100852.84;5035025;28;20403;-57
2022/09/13 07:01:10;;;;;;;3.90;2.13;;;;;;;43.07;13.34;100840.22;5037363;28;20411;-58
2022/09/13 07:03:46;;;;;;;3.22;1.95;;;;;;;43.01;13.57;100847.38;5036950;28;20910;-63
2022/09/13 07:06:14;;;;;;;4.85;2.15;;;;;;;42.42;13.70;100850.09;5032668;28;20449;-63
2022/09/13 07:08:42;;;;;;;4.22;1.98;;;;;;;41.29;14.83;100845.66;5038778;28;20383;-61
2022/09/13 07:11:10;;;;;;;4.20;1.98;;;;;;;39.76;16.27;100854.53;5037425;28;20729;-61
2022/09/13 07:13:36;;;;;;;3.47;2.10;;;;;;;38.37;17.33;100858.44;5036317;28;20383;-61
2022/09/13 07:16:04;;;;;;;6.37;1.97;;;;;;;37.23;17.79;100854.84;5039030;28;20460;-61
2022/09/13 07:18:42;;;;;;;3.60;1.80;;;;;;;36.68;18.29;100858.97;5065735;27;2185854;-61
2022/09/13 07:22:15;;;;;;;3.10;1.83;;;;;;;35.87;18.83;100853.81;5044309;28;20980;-61
2022/09/13 07:27:23;;;;;;;3.20;1.80;;;;;;;34.96;19.61;100859.72;5085157;27;20406;-60
2022/09/13 07:29:48;;;;;;;6.07;1.70;;;;;;;34.62;20.04;100861.47;5078352;28;20402;-60
2022/09/13 07:32:14;;;;;;;1.83;1.50;;;;;;;34.35;19.89;100873.69;5070661;28;20379;-60
2022/09/13 07:34:39;;;;;;;2.47;1.57;;;;;;;34.05;20.32;100865.31;5068361;28;20380;-61
2022/09/13 07:37:04;;;;;;;3.40;2.13;;;;;;;33.68;20.22;100875.84;5075506;28;20388;-61
2022/09/13 07:39:30;;;;;;;2.73;1.40;;;;;;;33.38;20.60;100877.53;5069103;28;20509;-61
2022/09/13 07:41:56;;;;;;;8.13;1.90;;;;;;;33.07;21.12;100881.16;5071926;28;20761;-61
2022/09/13 07:44:21;;;;;;;3.77;1.90;;;;;;;33.01;21.32;100879.69;5066226;28;20809;-60
2022/09/13 07:46:47;;;;;;;3.30;1.85;;;;;;;33.02;21.08;100878.53;5074370;28;20467;-62
2022/09/13 07:49:15;;;;;;;1.95;1.42;;;;;;;32.70;21.87;100880.53;5069410;28;20391;-62
2022/09/13 07:51:42;;;;;;;5.20;2.73;;;;;;;32.55;21.60;100880.91;5072718;28;20428;-62
2022/09/13 07:56:30;;;;;;;2.10;1.77;;;;;;;32.31;22.07;100878.50;5085305;27;20941;-62
2022/09/13 07:58:59;;;;;;;3.40;1.77;;;;;;;32.12;22.66;100879.50;5071427;28;20487;-62
2022/09/13 08:01:46;;;;;;;3.00;1.63;;;;;;;31.92;22.93;100869.81;5065847;28;20476;-62
2022/09/13 08:04:16;;;;;;;2.97;1.60;;;;;;;31.84;22.51;100870.56;5076065;28;20378;-62
2022/09/13 08:06:45;;;;;;;2.88;1.48;;;;;;;31.88;22.93;100862.53;5065012;28;20381;-62
2022/09/13 08:09:11;;;;;;;7.68;2.28;;;;;;;31.56;22.81;100876.09;5060659;28;20446;-61
2022/09/13 08:11:45;;;;;;;6.50;2.10;;;;;;;31.55;22.56;100877.25;5060970;28;20383;-61
2022/09/13 08:14:14;;;;;;;2.33;1.83;;;;;;;31.59;22.43;100880.19;5063650;28;20399;-62
2022/09/13 08:16:39;;;;;;;1.90;1.50;;;;;;;31.44;22.02;100871.16;5062433;28;20922;-61
2022/09/13 08:19:07;;;;;;;4.27;1.63;;;;;;;31.16;22.53;100873.09;5063580;28;20400;-61
2022/09/13 08:21:35;;;;;;;5.57;1.90;;;;;;;31.09;22.77;100867.22;5060343;28;20404;-62
2022/09/13 08:24:03;;;;;;;2.47;1.95;;;;;;;31.01;22.67;100871.47;5059505;28;20908;-61
2022/09/13 08:26:31;;;;;;;2.85;1.30;;;;;;;30.83;22.37;100862.22;5061554;28;20411;-61
2022/09/13 08:28:59;;;;;;;3.10;1.48;;;;;;;30.80;22.80;100870.22;5061066;28;20957;-60
2022/09/13 08:33:27;;;;;;;3.40;1.85;;;;;;;30.73;22.79;100856.13;5082506;27;20428;-62
2022/09/13 08:35:54;;;;;;;3.77;1.90;;;;;;;30.77;22.97;100852.47;5082606;28;20402;-62
2022/09/13 08:38:20;;;;;;;3.27;1.93;;;;;;;30.66;22.87;100857.31;5082457;28;20424;-61
2022/09/13 08:40:58;;;;;;;4.30;2.13;;;;;;;30.57;22.79;100852.88;5081050;28;20398;-61
2022/09/13 08:43:45;;;;;;;1.87;1.33;;;;;;;30.52;23.01;100844.75;5082241;28;20792;-61
2022/09/13 08:46:13;;;;;;;2.45;1.35;;;;;;;30.39;22.92;100849.06;5082314;28;20378;-61
2022/09/13 08:48:43;;;;;;;5.85;1.80;;;;;;;30.26;22.91;100858.84;5082859;28;20393;-62
2022/09/13 08:51:43;;;;;;;4.55;1.48;;;;;;;30.28;22.48;100841.00;5075673;28;20388;-62
2022/09/13 08:54:12;;;;;;;3.45;1.45;;;;;;;30.25;22.75;100843.53;5065304;28;20749;-62
2022/09/13 08:56:48;;;;;;;2.03;1.40;;;;;;;30.23;22.88;100849.31;5078015;28;20391;-61
2022/09/13 08:59:33;;;;;;;3.22;1.98;;;;;;;30.20;22.81;100849.13;5073306;28;20422;-61
2022/09/13 09:02:13;;;;;;;6.30;1.77;;;;;;;30.20;23.12;100838.19;5071669;28;20439;-61
2022/09/13 09:04:57;;;;;;;2.80;1.67;;;;;;;30.05;22.77;100845.53;5075616;28;20407;-60
2022/09/13 09:07:27;;;;;;;5.38;1.80;;;;;;;29.98;22.48;100842.34;5073593;28;20789;-62
2022/09/13 09:10:01;;;;;;;8.47;1.63;;;;;;;29.73;22.95;100846.25;5073463;28;20426;-63
2022/09/13 09:12:26;;;;;;;2.90;1.60;;;;;;;29.60;23.21;100839.59;5085078;28;20776;-63
2022/09/13 09:15:02;;;;;;;4.40;1.47;;;;;;;29.66;23.48;100829.44;5073017;28;20388;-62
2022/09/13 09:17:40;;;;;;;2.40;1.35;;;;;;;29.65;23.26;100842.25;5077428;28;20393;-63
2022/09/13 09:20:16;;;;;;;2.50;1.90;;;;;;;29.44;23.43;100829.97;5085002;28;20377;-62
2022/09/13 09:22:43;;;;;;;2.25;1.20;;;;;;;29.34;23.39;100842.69;5071417;28;20382;-63
2022/09/13 09:27:57;;;;;;;2.33;1.15;;;;;;;29.09;22.69;100818.41;5074658;28;20457;-63
2022/09/13 09:30:40;;;;;;;2.20;1.50;;;;;;;29.11;22.96;100827.13;5072454;28;20384;-63
2022/09/13 09:33:33;;;;;;;1.52;1.20;;;;;;;29.06;22.50;100814.34;5076070;28;20476;-62
2022/09/13 09:36:16;;;;;;;3.90;1.30;;;;;;;28.96;22.61;100806.28;5070630;28;20475;-61
2022/09/13 09:40:19;;;;;;;2.20;1.38;;;;;;;28.83;23.28;100815.16;5081559;27;20459;-63
2022/09/13 09:42:47;;;;;;;2.40;1.20;;;;;;;28.85;22.99;100805.59;5069282;28;20404;-62
2022/09/13 09:45:26;;;;;;;2.40;1.27;;;;;;;28.84;23.33;100801.22;5066503;28;20383;-62
2022/09/13 09:47:53;;;;;;;4.47;1.70;;;;;;;28.75;23.43;100794.78;5060803;28;20380;-62
2022/09/13 09:50:42;;;;;;;2.30;1.30;;;;;;;28.71;23.85;100791.84;5075743;27;2027820;-62
2022/09/13 09:54:00;;;;;;;3.25;1.25;;;;;;;28.66;24.25;100789.16;5083871;27;20457;-62
2022/09/13 09:56:31;;;;;;;2.85;1.33;;;;;;;28.63;24.35;100795.22;5059715;28;20411;-62
2022/09/13 09:58:56;;;;;;;1.88;1.10;;;;;;;28.53;23.59;100789.81;5064564;28;20384;-62
2022/09/13 10:01:23;;;;;;;3.80;1.57;;;;;;;28.48;23.61;100785.22;5062853;28;20368;-62
2022/09/13 10:04:09;;;;;;;2.13;0.90;;;;;;;28.47;22.84;100774.59;5064603;28;20416;-62
2022/09/13 10:06:37;;;;;;;4.10;1.00;;;;;;;28.42;22.96;100776.28;5062991;28;21597;-62
2022/09/13 10:09:05;;;;;;;3.20;1.40;;;;;;;28.45;23.51;100763.19;5055058;28;20869;-62
2022/09/13 10:11:49;;;;;;;2.25;1.02;;;;;;;28.35;23.36;100770.38;5061404;28;20399;-63
2022/09/13 10:16:41;;;;;;;2.20;1.20;;;;;;;28.29;23.43;100776.16;5055696;27;20453;-62
2022/09/13 10:19:25;;;;;;;1.20;1.10;;;;;;;28.27;22.82;100776.47;5047608;28;20401;-62
2022/09/13 10:22:02;;;;;;;4.07;1.05;;;;;;;28.22;23.48;100788.22;5046399;28;20398;-62
2022/09/13 10:24:29;;;;;;;1.27;0.93;;;;;;;28.23;22.60;100786.28;5052573;28;20910;-62
2022/09/13 10:26:56;;;;;;;1.30;1.10;;;;;;;28.20;23.11;100784.97;5052883;28;20397;-62
2022/09/13 10:29:23;;;;;;;2.13;1.00;;;;;;;28.22;23.05;100773.78;5054801;28;20391;-61
2022/09/13 10:31:52;;;;;;;2.80;1.00;;;;;;;28.27;22.93;100786.53;5046246;28;20814;-62
2022/09/13 10:34:35;;;;;;;1.88;0.90;;;;;;;28.24;22.95;100781.69;5064661;28;20936;-61
2022/09/13 10:37:11;;;;;;;3.33;1.15;;;;;;;28.14;22.45;100796.19;5060294;28;20901;-61
2022/09/13 10:39:52;;;;;;;3.13;1.10;;;;;;;28.10;22.73;100793.22;5058781;28;20391;-62
2022/09/13 10:42:22;;;;;;;2.33;1.40;;;;;;;28.07;22.97;100782.09;5057021;28;20493;-62
2022/09/13 10:44:56;;;;;;;2.30;1.10;;;;;;;28.06;22.40;100784.00;5052864;28;20772;-62
2022/09/13 10:47:30;;;;;;;2.77;1.13;;;;;;;28.03;22.14;100781.84;5045694;28;20481;-61
2022/09/13 10:49:58;;;;;;;3.90;1.20;;;;;;;28.01;22.15;100779.41;5046127;28;20408;-62
2022/09/13 10:54:23;;;;;;;2.90;1.17;;;;;;;28.05;22.48;100762.47;5087622;27;20409;-63
2022/09/13 10:56:52;;;;;;;2.22;1.13;;;;;;;28.07;22.59;100779.34;5067536;28;20400;-64
2022/09/13 10:59:29;;;;;;;2.92;1.30;;;;;;;28.04;22.37;100778.03;5068786;28;20384;-62
2022/09/13 11:02:32;;;;;;;2.70;1.20;;;;;;;27.98;21.84;100770.97;5071710;28;20406;-62
2022/09/13 11:05:10;;;;;;;2.17;1.33;;;;;;;27.96;21.79;100771.25;5067230;28;20426;-62
2022/09/13 11:08:00;;;;;;;2.20;1.10;;;;;;;27.93;22.09;100766.41;5066540;28;20388;-62
2022/09/13 11:10:42;;;;;;;2.45;1.13;;;;;;;27.93;22.65;100766.41;5065563;28;20459;-62
2022/09/13 11:14:16;;;;;;;2.10;1.10;;;;;;;27.89;22.45;100754.41;5082063;27;20480;-62
2022/09/13 11:16:54;;;;;;;1.85;0.90;;;;;;;27.89;22.40;100759.03;5084959;28;20507;-62
2022/09/13 11:19:45;;;;;;;1.85;1.10;;;;;;;27.89;21.83;100751.66;5080886;28;20378;-62
2022/09/13 11:22:33;;;;;;;1.30;0.90;;;;;;;27.85;22.13;100748.69;5078333;28;20386;-62
2022/09/13 11:25:17;;;;;;;2.88;0.95;;;;;;;27.81;22.22;100747.66;5062374;28;20782;-62
2022/09/13 11:28:25;;;;;;;1.90;1.00;;;;;;;27.81;22.69;100747.66;5082670;28;21064;-62
2022/09/13 11:30:56;;;;;;;2.47;1.20;;;;;;;27.83;23.23;100747.38;5061303;28;20391;-63
2022/09/13 11:33:42;;;;;;;2.10;1.00;;;;;;;27.78;23.33;100750.94;5049481;28;20506;-63
2022/09/13 11:36:19;;;;;;;1.73;1.15;;;;;;;27.76;23.28;100736.81;5042297;28;20982;-63
2022/09/13 11:39:01;;;;;;;2.28;0.80;;;;;;;27.78;23.00;100741.97;5065682;28;20383;-61
2022/09/13 11:41:51;;;;;;;1.92;0.90;;;;;;;27.76;23.39;100750.41;5064866;28;20391;-61
2022/09/13 11:44:27;;;;;;;2.53;1.00;;;;;;;27.65;22.56;100741.50;5065739;28;20775;-59
2022/09/13 11:47:11;;;;;;;4.18;1.00;;;;;;;27.69;23.02;100738.22;5065865;28;20424;-60
2022/09/13 11:49:57;;;;;;;1.20;1.10;;;;;;;27.69;23.39;100743.69;5060363;28;20849;-59
2022/09/13 11:52:35;;;;;;;2.38;1.30;;;;;;;27.64;23.11;100745.34;5073895;28;20510;-59
2022/09/13 11:55:30;;;;;;;2.20;0.93;;;;;;;27.63;23.24;100729.28;5081019;28;20453;-60
2022/09/13 11:58:03;;;;;;;1.30;1.20;;;;;;;27.66;23.71;100728.72;5070492;28;20380;-60
2022/09/13 12:00:39;;;;;;;1.55;0.90;;;;;;;27.65;23.65;100727.09;5065590;28;20388;-60
2022/09/13 12:03:36;;;;;;;1.92;1.10;;;;;;;27.65;23.28;100743.44;5058013;28;20392;-60
2022/09/13 12:06:19;;;;;;;2.55;1.10;;;;;;;27.57;23.98;100723.06;5037213;28;20386;-60
2022/09/13 12:08:48;;;;;;;1.30;1.00;;;;;;;27.63;23.65;100741.00;5081090;28;20418;-59
2022/09/13 12:12:34;;;;;;;3.30;1.10;;;;;;;27.59;23.98;100723.59;5070503;27;20461;-59
2022/09/13 12:15:15;;;;;;;3.33;1.33;;;;;;;27.62;24.16;100738.53;5064305;28;20883;-60
2022/09/13 12:17:44;;;;;;;1.77;1.10;;;;;;;27.59;23.90;100734.50;5064219;28;20738;-60
2022/09/13 12:20:23;;;;;;;2.78;1.30;;;;;;;27.59;24.10;100734.50;5065246;28;20402;-60
2022/09/13 12:22:53;;;;;;;2.20;1.20;;;;;;;27.58;24.16;100741.03;5059834;28;20765;-60
2022/09/13 12:25:23;;;;;;;1.42;1.33;;;;;;;27.54;24.28;100731.00;5056659;28;20385;-59
2022/09/13 12:28:07;;;;;;;2.58;1.40;;;;;;;27.55;24.08;100738.88;5066121;28;20372;-60
2022/09/13 12:30:51;;;;;;;4.07;1.47;;;;;;;27.50;24.25;100740.84;5064305;28;20478;-59
2022/09/13 12:33:17;;;;;;;1.83;1.23;;;;;;;27.51;24.14;100740.53;5065461;28;20477;-60
2022/09/13 12:36:12;;;;;;;2.63;1.37;;;;;;;27.51;24.40;100750.63;5065319;28;20419;-60
2022/09/13 12:39:09;;;;;;;3.53;1.20;;;;;;;27.51;23.40;100745.97;5052968;28;20433;-60
2022/09/13 12:41:49;;;;;;;3.67;1.33;;;;;;;27.49;24.07;100739.19;5058256;28;20398;-60
2022/09/13 12:44:17;;;;;;;6.00;1.60;;;;;;;27.45;24.02;100744.41;5062767;28;20376;-61
2022/09/13 12:46:52;;;;;;;2.87;1.40;;;;;;;27.41;23.24;100730.53;5065390;28;20466;-59
2022/09/13 12:49:30;;;;;;;1.48;1.23;;;;;;;27.46;23.68;100737.88;5065256;28;20387;-60
2022/09/13 12:52:46;;;;;;;3.35;1.40;;;;;;;27.45;24.22;100733.50;5065407;28;20869;-59
2022/09/13 12:55:39;;;;;;;3.88;1.50;;;;;;;27.40;23.81;100723.44;5023689;28;20411;-59
2022/09/13 12:58:19;;;;;;;2.75;1.33;;;;;;;27.33;24.07;100731.13;5066209;28;20415;-59
2022/09/13 13:01:12;;;;;;;2.93;1.47;;;;;;;27.32;23.87;100726.78;5064559;28;20751;-59
2022/09/13 13:03:53;;;;;;;2.45;1.50;;;;;;;27.32;24.11;100723.25;5052490;28;20419;-60
2022/09/13 13:06:34;;;;;;;3.92;1.52;;;;;;;27.24;24.08;100730.91;5065320;28;20494;-60
2022/09/13 13:09:20;;;;;;;5.85;1.40;;;;;;;27.23;23.66;100734.69;5061332;28;20433;-60
2022/09/13 13:11:48;;;;;;;4.38;1.60;;;;;;;27.24;24.01;100725.44;5053488;28;20485;-60
2022/09/13 13:14:30;;;;;;;3.00;1.70;;;;;;;27.26;23.90;100723.28;5061202;28;20898;-60
2022/09/13 13:17:56;;;;;;;3.05;2.10;;;;;;;27.32;23.95;100723.25;5093643;27;20432;-60
2022/09/13 13:20:43;;;;;;;4.03;1.77;;;;;;;27.32;24.44;100728.69;5081778;28;20402;-61
2022/09/13 13:23:15;;;;;;;5.28;1.60;;;;;;;27.36;23.96;100730.56;5077954;28;20410;-61
2022/09/13 13:26:08;;;;;;;3.88;1.83;;;;;;;27.38;23.70;100722.91;5078421;28;21512;-61